createdAt,value
2022-08-01T00:00:09.377Z,55.38
2022-08-01T00:02:39.130Z,55.24
2022-08-01T00:05:06.991Z,55.08
2022-08-01T00:07:37.499Z,54.59
2022-08-01T00:10:05.620Z,54.61
2022-08-01T00:12:32.313Z,54.33
2022-08-01T00:14:58.927Z,54.36
2022-08-01T00:17:25.525Z,54.39
2022-08-01T00:19:52.125Z,54.36
2022-08-01T00:22:18.774Z,54.27
2022-08-01T00:24:45.371Z,54.30
2022-08-01T00:27:11.966Z,53.97
2022-08-01T00:30:09.801Z,53.94
2022-08-01T00:32:25.449Z,54.33
2022-08-01T00:34:52.230Z,54.31
2022-08-01T00:37:18.885Z,54.38
2022-08-01T00:39:45.636Z,54.13
2022-08-01T00:42:13.316Z,54.20
2022-08-01T00:44:41.163Z,54.28
2022-08-01T00:47:08.486Z,54.33
2022-08-01T00:49:35.835Z,54.51
2022-08-01T00:52:05.852Z,54.41
2022-08-01T00:54:33.452Z,54.29
2022-08-01T00:57:00.701Z,54.26
2022-08-01T00:59:28.175Z,54.35
2022-08-01T01:01:55.461Z,54.90
2022-08-01T01:04:23.095Z,54.78
2022-08-01T01:07:00.999Z,54.71
2022-08-01T01:09:43.786Z,54.73
2022-08-01T01:12:27.164Z,54.67
2022-08-01T01:15:09.547Z,54.89
2022-08-01T01:17:52.135Z,54.91
2022-08-01T01:20:21.363Z,55.15
2022-08-01T01:22:53.833Z,55.18
2022-08-01T01:25:40.873Z,55.28
2022-08-01T01:28:34.641Z,55.41
2022-08-01T01:31:03.296Z,55.60
2022-08-01T01:33:33.115Z,55.89
2022-08-01T01:36:07.510Z,55.73
2022-08-01T01:38:45.327Z,55.87
2022-08-01T01:41:13.847Z,55.88
2022-08-01T01:43:41.607Z,56.13
2022-08-01T01:46:11.771Z,56.02
2022-08-01T01:48:40.134Z,56.08
2022-08-01T01:51:07.925Z,56.01
2022-08-01T01:53:36.725Z,56.15
2022-08-01T01:56:04.649Z,56.50
2022-08-01T01:58:34.122Z,55.86
2022-08-01T02:01:03.544Z,56.47
2022-08-01T02:03:32.703Z,56.09
2022-08-01T02:06:01.730Z,56.00
2022-08-01T02:08:31.849Z,56.10
2022-08-01T02:11:19.445Z,56.02
2022-08-01T02:13:53.514Z,56.19
2022-08-01T02:16:23.843Z,56.15
2022-08-01T02:18:50.730Z,56.12
2022-08-01T02:21:47.045Z,56.30
2022-08-01T02:24:32.485Z,56.21
2022-08-01T02:27:05.881Z,56.25
2022-08-01T02:29:40.867Z,56.50
2022-08-01T02:32:10.710Z,56.41
2022-08-01T02:34:37.339Z,56.55
2022-08-01T02:37:04.579Z,56.96
2022-08-01T02:39:32.953Z,56.90
2022-08-01T02:42:04.563Z,56.59
2022-08-01T02:44:36.439Z,56.91
2022-08-01T02:47:04.341Z,56.89
2022-08-01T02:49:36.371Z,56.89
2022-08-01T02:52:08.324Z,57.14
2022-08-01T02:54:37.792Z,57.10
2022-08-01T02:57:06.985Z,57.44
2022-08-01T02:59:36.189Z,57.24
2022-08-01T03:02:06.683Z,57.48
2022-08-01T03:04:37.803Z,57.50
2022-08-01T03:07:08.779Z,57.81
2022-08-01T03:09:39.135Z,58.00
2022-08-01T03:12:10.410Z,57.92
2022-08-01T03:14:40.932Z,58.18
2022-08-01T03:17:09.640Z,58.36
2022-08-01T03:19:39.249Z,58.07
2022-08-01T03:22:12.253Z,58.34
2022-08-01T03:24:41.278Z,58.46
2022-08-01T03:27:09.675Z,58.50
2022-08-01T03:29:40.025Z,58.75
2022-08-01T03:32:08.205Z,58.87
2022-08-01T03:34:35.110Z,59.06
2022-08-01T03:37:13.421Z,59.65
2022-08-01T03:39:55.282Z,59.57
2022-08-01T03:42:27.328Z,59.70
2022-08-01T03:44:56.639Z,59.49
2022-08-01T03:47:30.646Z,60.11
2022-08-01T03:49:59.399Z,59.79
2022-08-01T03:52:28.617Z,60.18
2022-08-01T03:54:57.244Z,60.40
2022-08-01T03:57:35.708Z,60.33
2022-08-01T04:00:10.025Z,60.51
2022-08-01T04:02:40.172Z,60.46
2022-08-01T04:05:08.218Z,60.74
2022-08-01T04:07:40.171Z,61.00
2022-08-01T04:10:07.733Z,60.91
2022-08-01T04:12:35.732Z,60.96
2022-08-01T04:15:02.438Z,60.92
2022-08-01T04:17:29.092Z,61.08
2022-08-01T04:19:55.664Z,61.44
2022-08-01T04:22:22.308Z,61.52
2022-08-01T04:24:56.438Z,61.53
2022-08-01T04:27:50.920Z,61.81
2022-08-01T04:30:21.692Z,62.05
2022-08-01T04:32:50.874Z,61.82
2022-08-01T04:35:36.016Z,62.06
2022-08-01T04:38:10.296Z,62.19
2022-08-01T04:40:38.103Z,62.23
2022-08-01T04:43:04.829Z,62.88
2022-08-01T04:45:33.614Z,62.39
2022-08-01T04:48:00.976Z,63.03
2022-08-01T04:50:28.365Z,62.92
2022-08-01T04:52:55.535Z,63.42
2022-08-01T04:55:22.170Z,63.32
2022-08-01T04:57:49.168Z,63.30
2022-08-01T05:00:17.568Z,63.57
2022-08-01T05:02:44.294Z,63.59
2022-08-01T05:05:11.509Z,63.69
2022-08-01T05:07:44.158Z,64.45
2022-08-01T05:10:12.094Z,64.66
2022-08-01T05:12:38.728Z,64.58
2022-08-01T05:15:11.827Z,64.49
2022-08-01T05:17:43.311Z,64.78
2022-08-01T05:20:11.272Z,64.75
2022-08-01T05:22:38.230Z,64.92
2022-08-01T05:25:06.006Z,64.97
2022-08-01T05:27:33.582Z,64.69
2022-08-01T05:30:00.573Z,65.16
2022-08-01T05:32:28.219Z,65.38
2022-08-01T05:34:54.884Z,64.63
2022-08-01T05:37:21.533Z,64.83
2022-08-01T05:39:48.117Z,64.44
2022-08-01T05:42:14.721Z,64.23
2022-08-01T05:44:41.342Z,64.09
2022-08-01T05:47:07.966Z,63.51
2022-08-01T05:49:34.731Z,63.43
2022-08-01T05:52:03.062Z,63.11
2022-08-01T05:54:30.229Z,63.09
2022-08-01T05:57:00.528Z,62.90
2022-08-01T05:59:27.410Z,63.05
2022-08-01T06:01:54.089Z,63.01
2022-08-01T06:04:20.817Z,63.31
2022-08-01T06:06:47.433Z,63.16
2022-08-01T06:09:14.062Z,63.29
2022-08-01T06:11:40.753Z,62.85
2022-08-01T06:14:07.381Z,62.93
2022-08-01T06:16:34.113Z,62.99
2022-08-01T06:19:00.793Z,62.84
2022-08-01T06:21:27.348Z,62.81
2022-08-01T06:23:53.984Z,62.72
2022-08-01T06:26:20.851Z,62.21
2022-08-01T06:28:47.433Z,62.25
2022-08-01T06:31:14.839Z,62.84
2022-08-01T06:33:41.428Z,62.85
2022-08-01T06:36:08.047Z,62.00
2022-08-01T06:38:34.643Z,62.25
2022-08-01T06:41:01.217Z,61.87
2022-08-01T06:43:27.801Z,61.89
2022-08-01T06:45:54.363Z,62.10
2022-08-01T06:48:20.961Z,61.76
2022-08-01T06:50:47.555Z,61.25
2022-08-01T06:53:14.195Z,61.66
2022-08-01T06:55:40.831Z,61.43
2022-08-01T06:58:07.458Z,60.85
2022-08-01T07:00:34.550Z,60.51
2022-08-01T07:03:01.277Z,60.75
2022-08-01T07:05:28.267Z,60.79
2022-08-01T07:07:55.188Z,60.59
2022-08-01T07:10:21.856Z,60.08
2022-08-01T07:12:48.441Z,59.94
2022-08-01T07:15:15.501Z,59.37
2022-08-01T07:17:43.587Z,59.12
2022-08-01T07:20:13.939Z,58.97
2022-08-01T07:22:43.569Z,58.88
2022-08-01T07:25:14.137Z,58.71
2022-08-01T07:27:40.844Z,58.37
2022-08-01T07:30:08.041Z,58.33
2022-08-01T07:32:35.870Z,58.08
2022-08-01T07:35:03.741Z,57.24
2022-08-01T07:37:48.284Z,56.88
2022-08-01T07:40:18.820Z,56.41
2022-08-01T07:42:46.116Z,56.40
2022-08-01T07:45:13.934Z,56.53
2022-08-01T07:47:40.564Z,56.05
2022-08-01T07:50:08.224Z,56.71
2022-08-01T07:52:35.121Z,56.17
2022-08-01T07:55:01.717Z,55.84
2022-08-01T07:57:28.342Z,56.07
2022-08-01T07:59:55.049Z,56.27
2022-08-01T08:02:21.872Z,56.17
2022-08-01T08:04:49.249Z,55.57
2022-08-01T08:07:16.788Z,55.50
2022-08-01T08:09:43.452Z,55.74
2022-08-01T08:12:10.694Z,55.36
2022-08-01T08:14:37.564Z,55.08
2022-08-01T08:17:04.913Z,55.37
2022-08-01T08:19:38.033Z,55.00
2022-08-01T08:22:06.815Z,54.96
2022-08-01T08:24:33.795Z,55.46
2022-08-01T08:27:01.928Z,55.11
2022-08-01T08:29:30.845Z,54.87
2022-08-01T08:31:58.713Z,54.56
2022-08-01T08:34:26.825Z,53.40
2022-08-01T08:36:55.778Z,53.91
2022-08-01T08:39:22.980Z,53.60
2022-08-01T08:41:50.328Z,53.55
2022-08-01T08:44:18.327Z,53.91
2022-08-01T08:46:47.958Z,54.05
2022-08-01T08:49:19.516Z,53.81
2022-08-01T08:51:49.217Z,53.36
2022-08-01T08:54:17.427Z,53.28
2022-08-01T08:56:46.665Z,52.93
2022-08-01T08:59:14.863Z,52.48
2022-08-01T09:01:42.845Z,53.12
2022-08-01T09:04:10.806Z,52.99
2022-08-01T09:06:37.567Z,51.84
2022-08-01T09:09:05.131Z,51.73
2022-08-01T09:11:32.060Z,52.09
2022-08-01T09:14:07.519Z,51.78
2022-08-01T09:16:35.562Z,52.48
2022-08-01T09:19:40.500Z,51.93
2022-08-01T09:22:05.832Z,52.33
2022-08-01T09:24:33.348Z,52.26
2022-08-01T09:27:03.345Z,50.65
2022-08-01T09:29:38.143Z,51.93
2022-08-01T09:32:08.108Z,51.18
2022-08-01T09:34:35.145Z,50.94
2022-08-01T09:37:03.919Z,49.68
2022-08-01T09:39:43.795Z,50.23
2022-08-01T09:42:29.131Z,50.47
2022-08-01T09:44:56.549Z,49.65
2022-08-01T09:47:38.883Z,49.48
2022-08-01T09:50:10.726Z,49.89
2022-08-01T09:52:38.204Z,49.71
2022-08-01T09:55:08.497Z,50.47
2022-08-01T09:57:35.290Z,49.38
2022-08-01T10:00:04.830Z,48.42
2022-08-01T10:02:43.365Z,48.37
2022-08-01T10:05:19.018Z,48.08
2022-08-01T10:07:59.578Z,48.20
2022-08-01T10:10:28.942Z,48.86
2022-08-01T10:12:59.751Z,48.48
2022-08-01T10:15:36.409Z,47.82
2022-08-01T10:18:16.199Z,49.11
2022-08-01T10:20:48.538Z,47.93
2022-08-01T10:23:16.446Z,47.72
2022-08-01T10:25:47.057Z,46.46
2022-08-01T10:28:18.163Z,46.01
2022-08-01T10:30:49.395Z,46.36
2022-08-01T10:33:49.660Z,45.90
2022-08-01T10:36:03.956Z,43.73
2022-08-01T10:38:37.198Z,45.06
2022-08-01T10:41:06.596Z,45.18
2022-08-01T10:43:35.313Z,45.29
2022-08-01T10:46:04.534Z,44.06
2022-08-01T10:48:57.979Z,43.77
2022-08-01T10:51:51.522Z,43.36
2022-08-01T10:54:14.418Z,43.41
2022-08-01T10:56:46.480Z,42.13
2022-08-01T10:59:29.193Z,43.33
2022-08-01T11:02:09.195Z,42.07
2022-08-01T11:04:41.599Z,41.82
2022-08-01T11:07:25.839Z,42.77
2022-08-01T11:10:24.788Z,43.51
2022-08-01T11:12:51.476Z,44.96
2022-08-01T11:15:29.178Z,45.60
2022-08-01T11:18:00.659Z,46.96
2022-08-01T11:20:31.410Z,46.78
2022-08-01T11:23:02.991Z,48.00
2022-08-01T11:25:58.437Z,48.53
2022-08-01T11:28:35.572Z,47.08
2022-08-01T11:31:07.601Z,46.86
2022-08-01T11:33:40.466Z,46.57
2022-08-01T11:36:12.930Z,45.78
2022-08-01T11:39:13.608Z,45.16
2022-08-01T11:41:41.570Z,44.39
2022-08-01T11:44:15.753Z,44.21
2022-08-01T11:46:53.440Z,44.33
2022-08-01T11:49:29.318Z,44.22
2022-08-01T11:52:04.910Z,43.58
2022-08-01T11:54:39.525Z,41.61
2022-08-01T11:57:12.162Z,40.93
2022-08-01T12:00:02.722Z,41.12
2022-08-01T12:02:38.928Z,41.27
2022-08-01T12:05:22.612Z,41.72
2022-08-01T12:07:52.838Z,41.55
2022-08-01T12:10:22.227Z,42.18
2022-08-01T12:12:57.812Z,42.22
2022-08-01T12:15:29.869Z,43.21
2022-08-01T12:17:59.722Z,43.96
2022-08-01T12:20:30.969Z,44.23
2022-08-01T12:23:00.988Z,44.76
2022-08-01T12:25:27.738Z,45.22
2022-08-01T12:27:56.465Z,45.66
2022-08-01T12:30:26.145Z,45.68
2022-08-01T12:32:54.416Z,46.36
2022-08-01T12:35:24.265Z,46.55
2022-08-01T12:38:02.164Z,45.55
2022-08-01T12:40:45.350Z,45.21
2022-08-01T12:43:26.816Z,45.26
2022-08-01T12:45:57.763Z,44.07
2022-08-01T12:48:25.984Z,44.13
2022-08-01T12:50:53.869Z,44.18
2022-08-01T12:53:21.772Z,43.89
2022-08-01T12:55:58.049Z,44.16
2022-08-01T12:58:35.986Z,44.88
2022-08-01T13:01:08.717Z,45.36
2022-08-01T13:03:35.975Z,44.47
2022-08-01T13:06:11.807Z,45.10
2022-08-01T13:08:39.485Z,45.57
2022-08-01T13:11:15.049Z,45.72
2022-08-01T13:13:50.288Z,46.29
2022-08-01T13:16:30.832Z,46.50
2022-08-01T13:19:05.851Z,46.97
2022-08-01T13:21:52.892Z,46.80
2022-08-01T13:24:28.210Z,46.79
2022-08-01T13:27:01.271Z,48.14
2022-08-01T13:29:41.017Z,49.22
2022-08-01T13:32:28.735Z,50.17
2022-08-01T13:35:06.098Z,51.54
2022-08-01T13:37:33.002Z,51.27
2022-08-01T13:39:59.927Z,51.29
2022-08-01T13:42:26.508Z,51.56
2022-08-01T13:44:53.238Z,51.46
2022-08-01T13:47:19.874Z,51.51
2022-08-01T13:50:01.745Z,51.53
2022-08-01T13:52:29.253Z,51.06
2022-08-01T13:54:55.913Z,51.32
2022-08-01T13:57:22.843Z,51.68
2022-08-01T13:59:49.714Z,51.93
2022-08-01T14:02:16.473Z,51.69
2022-08-01T14:04:43.306Z,51.85
2022-08-01T14:07:14.807Z,51.45
2022-08-01T14:10:04.452Z,50.79
2022-08-01T14:12:29.730Z,50.05
2022-08-01T14:14:57.367Z,49.25
2022-08-01T14:17:24.308Z,47.16
2022-08-01T14:19:50.986Z,46.89
2022-08-01T14:22:17.553Z,46.13
2022-08-01T14:24:44.189Z,44.71
2022-08-01T14:27:11.241Z,43.76
2022-08-01T14:30:02.279Z,42.79
2022-08-01T14:32:28.629Z,41.65
2022-08-01T14:34:57.032Z,40.48
2022-08-01T14:37:28.776Z,39.84
2022-08-01T14:40:01.878Z,38.62
2022-08-01T14:42:29.747Z,38.38
2022-08-01T14:44:56.784Z,37.22
2022-08-01T14:47:24.149Z,36.71
2022-08-01T14:49:51.645Z,36.53
2022-08-01T14:52:18.834Z,36.67
2022-08-01T14:54:45.576Z,35.87
2022-08-01T14:57:12.917Z,36.58
2022-08-01T14:59:39.530Z,36.78
2022-08-01T15:02:06.394Z,36.75
2022-08-01T15:04:33.481Z,37.57
2022-08-01T15:07:00.074Z,38.50
2022-08-01T15:09:26.710Z,39.60
2022-08-01T15:11:53.316Z,39.81
2022-08-01T15:14:38.805Z,39.80
2022-08-01T15:17:06.166Z,41.01
2022-08-01T15:19:32.764Z,41.46
2022-08-01T15:21:59.385Z,41.60
2022-08-01T15:24:28.616Z,41.01
2022-08-01T15:26:55.344Z,41.32
2022-08-01T15:29:21.932Z,41.58
2022-08-01T15:31:48.656Z,42.19
2022-08-01T15:34:15.236Z,41.13
2022-08-01T15:36:43.730Z,40.72
2022-08-01T15:39:11.201Z,39.97
2022-08-01T15:41:37.997Z,39.59
2022-08-01T15:44:04.792Z,38.73
2022-08-01T15:46:31.404Z,38.89
2022-08-01T15:48:58.102Z,39.66
2022-08-01T15:51:24.671Z,40.32
2022-08-01T15:53:51.303Z,41.04
2022-08-01T15:56:17.883Z,41.92
2022-08-01T15:58:44.638Z,42.73
2022-08-01T16:01:11.256Z,43.49
2022-08-01T16:03:37.886Z,44.38
2022-08-01T16:06:04.500Z,44.56
2022-08-01T16:08:31.368Z,44.31
2022-08-01T16:10:57.996Z,45.17
2022-08-01T16:13:24.615Z,45.09
2022-08-01T16:15:51.464Z,45.24
2022-08-01T16:18:18.281Z,45.51
2022-08-01T16:20:46.062Z,46.17
2022-08-01T16:23:14.060Z,46.87
2022-08-01T16:25:40.830Z,46.94
2022-08-01T16:28:09.188Z,46.97
2022-08-01T16:30:36.018Z,47.25
2022-08-01T16:33:07.235Z,48.23
2022-08-01T16:35:36.641Z,48.94
2022-08-01T16:38:07.107Z,50.87
2022-08-01T16:40:46.333Z,51.92
2022-08-01T16:43:15.330Z,53.40
2022-08-01T16:45:43.142Z,55.21
2022-08-01T16:48:12.297Z,58.12
2022-08-01T16:50:39.494Z,60.28
2022-08-01T16:53:06.168Z,61.92
2022-08-01T16:55:49.824Z,63.39
2022-08-01T16:58:27.696Z,65.22
2022-08-01T17:00:57.427Z,65.92
2022-08-01T17:03:46.735Z,66.64
2022-08-01T17:06:13.109Z,67.43
2022-08-01T17:08:46.964Z,68.01
2022-08-01T17:11:15.142Z,69.15
2022-08-01T17:13:42.860Z,69.79
2022-08-01T17:16:10.293Z,70.44
2022-08-01T17:18:36.957Z,70.13
2022-08-01T17:21:03.647Z,71.19
2022-08-01T17:23:31.831Z,70.94
2022-08-01T17:25:59.073Z,70.69
2022-08-01T17:28:26.230Z,70.73
2022-08-01T17:30:52.833Z,69.18
2022-08-01T17:33:19.478Z,68.17
2022-08-01T17:35:46.090Z,68.60
2022-08-01T17:38:12.731Z,69.34
2022-08-01T17:40:40.760Z,69.71
2022-08-01T17:43:08.205Z,70.37
2022-08-01T17:45:39.306Z,71.31
2022-08-01T17:48:19.020Z,72.38
2022-08-01T17:50:47.213Z,73.56
2022-08-01T17:53:15.581Z,73.09
2022-08-01T17:55:55.421Z,73.33
2022-08-01T17:58:33.126Z,74.11
2022-08-01T18:01:16.860Z,74.34
2022-08-01T18:03:44.317Z,74.49
2022-08-01T18:06:17.499Z,74.75
2022-08-01T18:08:47.053Z,75.08
2022-08-01T18:11:16.002Z,74.80
2022-08-01T18:13:42.899Z,74.64
2022-08-01T18:16:12.678Z,74.54
2022-08-01T18:18:40.778Z,74.78
2022-08-01T18:21:08.113Z,75.03
2022-08-01T18:23:35.288Z,74.56
2022-08-01T18:26:03.214Z,74.49
2022-08-01T18:28:36.653Z,74.63
2022-08-01T18:31:06.360Z,74.37
2022-08-01T18:33:34.528Z,74.39
2022-08-01T18:36:03.744Z,73.86
2022-08-01T18:38:32.920Z,74.28
2022-08-01T18:41:01.073Z,74.61
2022-08-01T18:43:28.095Z,74.92
2022-08-01T18:45:57.294Z,75.28
2022-08-01T18:48:24.677Z,75.73
2022-08-01T18:50:52.325Z,76.38
2022-08-01T18:53:20.729Z,77.05
2022-08-01T18:55:47.322Z,77.60
2022-08-01T18:58:13.885Z,77.51
2022-08-01T19:00:40.607Z,77.65
2022-08-01T19:03:07.906Z,77.54
2022-08-01T19:05:34.979Z,77.52
2022-08-01T19:08:04.749Z,76.75
2022-08-01T19:10:32.400Z,76.91
2022-08-01T19:13:00.189Z,77.40
2022-08-01T19:15:26.832Z,77.46
2022-08-01T19:17:53.417Z,77.70
2022-08-01T19:20:20.043Z,77.87
2022-08-01T19:22:46.661Z,77.97
2022-08-01T19:25:16.729Z,78.00
2022-08-01T19:27:48.259Z,78.03
2022-08-01T19:30:16.666Z,78.19
2022-08-01T19:32:46.383Z,78.56
2022-08-01T19:35:15.134Z,78.92
2022-08-01T19:37:47.368Z,79.07
2022-08-01T19:40:27.019Z,79.41
2022-08-01T19:42:56.654Z,79.53
2022-08-01T19:45:29.631Z,80.04
2022-08-01T19:47:57.801Z,80.61
2022-08-01T19:50:26.856Z,81.19
2022-08-01T19:52:55.625Z,81.28
2022-08-01T19:55:24.161Z,81.41
2022-08-01T19:58:24.123Z,81.63
2022-08-01T20:00:40.118Z,81.23
2022-08-01T20:03:07.651Z,80.99
2022-08-01T20:05:34.749Z,80.05
2022-08-01T20:08:01.950Z,79.93
2022-08-01T20:10:30.157Z,79.38
2022-08-01T20:12:57.646Z,78.83
2022-08-01T20:15:25.328Z,78.69
2022-08-01T20:17:51.915Z,79.02
2022-08-01T20:20:18.522Z,79.40
2022-08-01T20:22:48.779Z,79.73
2022-08-01T20:25:19.323Z,79.73
2022-08-01T20:27:47.473Z,80.12
2022-08-01T20:30:14.683Z,81.07
2022-08-01T20:32:42.024Z,81.48
2022-08-01T20:35:09.400Z,81.52
2022-08-01T20:38:05.454Z,81.77
2022-08-01T20:40:27.011Z,82.06
2022-08-01T20:42:53.780Z,82.86
2022-08-01T20:45:22.399Z,83.41
2022-08-01T20:47:49.901Z,83.68
2022-08-01T20:50:52.994Z,83.33
2022-08-01T20:53:23.624Z,83.18
2022-08-01T20:55:58.204Z,82.99
2022-08-01T20:58:37.427Z,82.97
2022-08-01T21:01:09.212Z,82.03
2022-08-01T21:03:52.088Z,81.55
2022-08-01T21:06:24.356Z,80.10
2022-08-01T21:08:55.894Z,80.26
2022-08-01T21:11:28.344Z,81.71
2022-08-01T21:13:58.848Z,82.58
2022-08-01T21:16:29.609Z,83.87
2022-08-01T21:19:18.535Z,84.85
2022-08-01T21:21:56.186Z,85.59
2022-08-01T21:24:28.266Z,85.68
2022-08-01T21:26:56.408Z,85.48
2022-08-01T21:29:24.910Z,85.38
2022-08-01T21:32:11.361Z,85.06
2022-08-01T21:34:39.494Z,84.69
2022-08-01T21:37:08.581Z,84.35
2022-08-01T21:39:36.808Z,84.07
2022-08-01T21:42:08.952Z,84.43
2022-08-01T21:44:38.896Z,84.64
2022-08-01T21:47:07.116Z,84.61
2022-08-01T21:49:39.427Z,84.45
2022-08-01T21:52:16.336Z,84.76
2022-08-01T21:55:05.469Z,84.65
2022-08-01T21:58:01.460Z,84.28
2022-08-01T22:00:28.223Z,84.40
2022-08-01T22:03:12.729Z,84.18
2022-08-01T22:05:50.888Z,83.81
2022-08-01T22:08:33.240Z,83.69
2022-08-01T22:11:05.057Z,83.70
2022-08-01T22:13:33.970Z,83.74
2022-08-01T22:16:03.283Z,84.11
2022-08-01T22:18:30.455Z,84.66
2022-08-01T22:20:57.108Z,84.64
2022-08-01T22:23:24.106Z,84.84
2022-08-01T22:25:55.314Z,84.47
2022-08-01T22:28:22.904Z,84.74
2022-08-01T22:30:51.468Z,84.53
2022-08-01T22:33:19.008Z,85.14
2022-08-01T22:35:48.370Z,85.19
2022-08-01T22:38:17.896Z,85.48
2022-08-01T22:41:03.873Z,85.99
2022-08-01T22:43:40.473Z,86.08
2022-08-01T22:46:13.667Z,86.42
2022-08-01T22:48:51.527Z,86.63
2022-08-01T22:51:32.804Z,86.95
2022-08-01T22:54:12.461Z,86.64
2022-08-01T22:56:47.421Z,86.30
2022-08-01T22:59:16.749Z,85.95
2022-08-01T23:01:47.709Z,85.70
2022-08-01T23:04:33.591Z,85.55
2022-08-01T23:07:05.471Z,85.12
2022-08-01T23:09:52.837Z,85.03
2022-08-01T23:12:25.463Z,85.12
2022-08-01T23:14:57.724Z,85.09
2022-08-01T23:17:28.816Z,85.27
2022-08-01T23:19:59.522Z,85.09
2022-08-01T23:22:30.159Z,85.60
2022-08-01T23:25:03.506Z,85.84
2022-08-01T23:27:55.798Z,85.79
2022-08-01T23:30:26.949Z,85.94
2022-08-01T23:32:54.380Z,86.21
2022-08-01T23:35:21.021Z,86.17
2022-08-01T23:37:50.927Z,86.28
2022-08-01T23:40:18.546Z,86.61
2022-08-01T23:42:45.259Z,86.43
2022-08-01T23:45:11.879Z,86.69
2022-08-01T23:47:38.611Z,86.78
2022-08-01T23:50:07.696Z,86.97
2022-08-01T23:52:34.784Z,86.93
2022-08-01T23:55:14.716Z,87.02
2022-08-01T23:57:42.344Z,87.22
